Carrot River, Canada
Current Conditions -  °F | °C
As of 6:00 AM on Thursday 30 Oct 2014 (Local Time) from CYBU Reporting Station
Overcast Overcast  
Wind Chill: 22°   Ceiling: 3000
Heat Index: 28°   Visibility: 9mi
Dew Point: 19°   Wind: 6mph
Humidity: 69%   Direction: 350°N
Pressure: 30.42"   Gusts: NA
Location:  53.28°N, 103.58°W
Report Text: CYBU 301200Z AUTO 35005KT 9SM OVC030 M02/M07 A3042 RMK SLP325
Loading
Personal Weather Stations






























Interactive Weather Map
Tropical Storm Tracking
New forecast layout! Learn more

10-Day Weather Forecast

Advertisements
Track Severe Weather on mobile